sensor_id;sensor_type;location;lat;lon;timestamp;P1;durP1;ratioP1;P2;durP2;ratioP2
12059;SDS011;6091;51.432;6.880;2023-03-01T00:01:30;0.82;;;0.77;;
12059;SDS011;6091;51.432;6.880;2023-03-01T00:03:58;0.60;;;0.60;;
12059;SDS011;6091;51.432;6.880;2023-03-01T00:06:26;0.63;;;0.63;;
12059;SDS011;6091;51.432;6.880;2023-03-01T00:08:54;0.70;;;0.70;;
12059;SDS011;6091;51.432;6.880;2023-03-01T00:11:26;0.45;;;0.45;;
12059;SDS011;6091;51.432;6.880;2023-03-01T00:13:56;0.70;;;0.70;;
12059;SDS011;6091;51.432;6.880;2023-03-01T00:16:32;0.60;;;0.60;;
12059;SDS011;6091;51.432;6.880;2023-03-01T00:19:05;0.68;;;0.60;;
12059;SDS011;6091;51.432;6.880;2023-03-01T00:21:34;0.80;;;0.60;;
12059;SDS011;6091;51.432;6.880;2023-03-01T00:24:01;0.63;;;0.63;;
12059;SDS011;6091;51.432;6.880;2023-03-01T00:26:30;0.70;;;0.70;;
12059;SDS011;6091;51.432;6.880;2023-03-01T00:28:58;0.60;;;0.60;;
12059;SDS011;6091;51.432;6.880;2023-03-01T00:31:29;0.70;;;0.70;;
12059;SDS011;6091;51.432;6.880;2023-03-01T00:34:00;0.60;;;0.60;;
12059;SDS011;6091;51.432;6.880;2023-03-01T00:36:31;0.60;;;0.60;;
12059;SDS011;6091;51.432;6.880;2023-03-01T00:39:03;0.60;;;0.60;;
12059;SDS011;6091;51.432;6.880;2023-03-01T00:41:32;0.60;;;0.60;;
12059;SDS011;6091;51.432;6.880;2023-03-01T00:44:00;0.68;;;0.68;;
12059;SDS011;6091;51.432;6.880;2023-03-01T00:46:28;0.88;;;0.88;;
12059;SDS011;6091;51.432;6.880;2023-03-01T00:48:57;0.70;;;0.70;;
12059;SDS011;6091;51.432;6.880;2023-03-01T00:51:25;0.80;;;0.70;;
12059;SDS011;6091;51.432;6.880;2023-03-01T00:53:55;0.60;;;0.60;;
12059;SDS011;6091;51.432;6.880;2023-03-01T00:56:26;0.70;;;0.70;;
12059;SDS011;6091;51.432;6.880;2023-03-01T00:58:54;0.68;;;0.68;;
12059;SDS011;6091;51.432;6.880;2023-03-01T01:01:23;0.75;;;0.60;;
12059;SDS011;6091;51.432;6.880;2023-03-01T01:03:59;0.50;;;0.50;;
12059;SDS011;6091;51.432;6.880;2023-03-01T01:06:35;0.52;;;0.52;;
12059;SDS011;6091;51.432;6.880;2023-03-01T01:09:09;1.52;;;0.80;;
12059;SDS011;6091;51.432;6.880;2023-03-01T01:11:47;0.50;;;0.50;;
12059;SDS011;6091;51.432;6.880;2023-03-01T01:14:17;0.70;;;0.70;;
12059;SDS011;6091;51.432;6.880;2023-03-01T01:16:45;0.50;;;0.50;;
12059;SDS011;6091;51.432;6.880;2023-03-01T01:19:13;0.68;;;0.68;;
12059;SDS011;6091;51.432;6.880;2023-03-01T01:21:41;0.60;;;0.60;;
12059;SDS011;6091;51.432;6.880;2023-03-01T01:24:09;0.60;;;0.60;;
12059;SDS011;6091;51.432;6.880;2023-03-01T01:26:37;0.57;;;0.57;;
12059;SDS011;6091;51.432;6.880;2023-03-01T01:29:04;0.50;;;0.50;;
12059;SDS011;6091;51.432;6.880;2023-03-01T01:31:33;0.50;;;0.50;;
12059;SDS011;6091;51.432;6.880;2023-03-01T01:34:04;0.80;;;0.80;;
12059;SDS011;6091;51.432;6.880;2023-03-01T01:36:33;0.50;;;0.50;;
12059;SDS011;6091;51.432;6.880;2023-03-01T01:39:01;0.50;;;0.50;;
12059;SDS011;6091;51.432;6.880;2023-03-01T01:41:28;0.52;;;0.52;;
12059;SDS011;6091;51.432;6.880;2023-03-01T01:44:15;0.50;;;0.50;;
12059;SDS011;6091;51.432;6.880;2023-03-01T01:46:54;0.60;;;0.60;;
12059;SDS011;6091;51.432;6.880;2023-03-01T01:49:46;0.60;;;0.60;;
12059;SDS011;6091;51.432;6.880;2023-03-01T01:52:27;0.60;;;0.60;;
12059;SDS011;6091;51.432;6.880;2023-03-01T01:55:08;0.50;;;0.50;;
12059;SDS011;6091;51.432;6.880;2023-03-01T01:57:49;0.60;;;0.60;;
12059;SDS011;6091;51.432;6.880;2023-03-01T02:00:25;0.52;;;0.52;;
12059;SDS011;6091;51.432;6.880;2023-03-01T02:02:56;0.68;;;0.68;;
12059;SDS011;6091;51.432;6.880;2023-03-01T02:05:35;0.47;;;0.47;;
12059;SDS011;6091;51.432;6.880;2023-03-01T02:08:03;0.50;;;0.50;;
12059;SDS011;6091;51.432;6.880;2023-03-01T02:10:32;0.65;;;0.65;;
12059;SDS011;6091;51.432;6.880;2023-03-01T02:13:01;0.50;;;0.50;;
12059;SDS011;6091;51.432;6.880;2023-03-01T02:15:32;0.60;;;0.60;;
12059;SDS011;6091;51.432;6.880;2023-03-01T02:18:02;0.60;;;0.60;;
12059;SDS011;6091;51.432;6.880;2023-03-01T02:20:35;0.63;;;0.63;;
12059;SDS011;6091;51.432;6.880;2023-03-01T02:23:18;0.50;;;0.50;;
12059;SDS011;6091;51.432;6.880;2023-03-01T02:25:54;0.50;;;0.50;;
12059;SDS011;6091;51.432;6.880;2023-03-01T02:28:34;0.50;;;0.50;;
12059;SDS011;6091;51.432;6.880;2023-03-01T02:31:07;0.55;;;0.50;;
12059;SDS011;6091;51.432;6.880;2023-03-01T02:33:55;0.63;;;0.63;;
12059;SDS011;6091;51.432;6.880;2023-03-01T02:36:25;0.50;;;0.50;;
12059;SDS011;6091;51.432;6.880;2023-03-01T02:38:58;0.57;;;0.57;;
12059;SDS011;6091;51.432;6.880;2023-03-01T02:41:28;0.50;;;0.50;;
12059;SDS011;6091;51.432;6.880;2023-03-01T02:44:01;0.57;;;0.57;;
12059;SDS011;6091;51.432;6.880;2023-03-01T02:46:30;0.57;;;0.57;;
12059;SDS011;6091;51.432;6.880;2023-03-01T02:48:58;0.40;;;0.40;;
12059;SDS011;6091;51.432;6.880;2023-03-01T02:54:31;0.63;;;0.50;;
12059;SDS011;6091;51.432;6.880;2023-03-01T02:57:07;0.52;;;0.52;;
12059;SDS011;6091;51.432;6.880;2023-03-01T02:59:36;0.60;;;0.60;;
12059;SDS011;6091;51.432;6.880;2023-03-01T03:02:07;0.52;;;0.52;;
12059;SDS011;6091;51.432;6.880;2023-03-01T03:05:09;0.57;;;0.57;;
12059;SDS011;6091;51.432;6.880;2023-03-01T03:07:41;0.60;;;0.60;;
12059;SDS011;6091;51.432;6.880;2023-03-01T03:10:19;0.57;;;0.57;;
12059;SDS011;6091;51.432;6.880;2023-03-01T03:12:50;0.57;;;0.57;;
12059;SDS011;6091;51.432;6.880;2023-03-01T03:15:20;0.65;;;0.60;;
12059;SDS011;6091;51.432;6.880;2023-03-01T03:17:52;0.50;;;0.50;;
12059;SDS011;6091;51.432;6.880;2023-03-01T03:20:20;0.60;;;0.60;;
12059;SDS011;6091;51.432;6.880;2023-03-01T03:22:55;0.63;;;0.63;;
12059;SDS011;6091;51.432;6.880;2023-03-01T03:25:27;0.73;;;0.73;;
12059;SDS011;6091;51.432;6.880;2023-03-01T03:27:56;0.50;;;0.50;;
12059;SDS011;6091;51.432;6.880;2023-03-01T03:30:27;0.60;;;0.60;;
12059;SDS011;6091;51.432;6.880;2023-03-01T03:32:58;0.60;;;0.60;;
12059;SDS011;6091;51.432;6.880;2023-03-01T03:38:08;0.50;;;0.50;;
12059;SDS011;6091;51.432;6.880;2023-03-01T03:43:18;0.47;;;0.47;;
12059;SDS011;6091;51.432;6.880;2023-03-01T03:45:50;0.57;;;0.57;;
12059;SDS011;6091;51.432;6.880;2023-03-01T03:48:18;0.60;;;0.60;;
12059;SDS011;6091;51.432;6.880;2023-03-01T03:50:48;0.60;;;0.60;;
12059;SDS011;6091;51.432;6.880;2023-03-01T03:53:17;0.40;;;0.40;;
12059;SDS011;6091;51.432;6.880;2023-03-01T03:55:46;0.50;;;0.50;;
12059;SDS011;6091;51.432;6.880;2023-03-01T03:58:15;0.50;;;0.50;;
12059;SDS011;6091;51.432;6.880;2023-03-01T04:00:47;0.50;;;0.50;;
12059;SDS011;6091;51.432;6.880;2023-03-01T04:03:17;0.70;;;0.70;;
12059;SDS011;6091;51.432;6.880;2023-03-01T04:05:46;0.68;;;0.68;;
12059;SDS011;6091;51.432;6.880;2023-03-01T04:08:16;0.68;;;0.68;;
12059;SDS011;6091;51.432;6.880;2023-03-01T04:10:49;0.52;;;0.50;;
12059;SDS011;6091;51.432;6.880;2023-03-01T04:13:21;0.60;;;0.60;;
12059;SDS011;6091;51.432;6.880;2023-03-01T04:15:49;0.60;;;0.60;;
12059;SDS011;6091;51.432;6.880;2023-03-01T04:18:19;0.45;;;0.45;;
12059;SDS011;6091;51.432;6.880;2023-03-01T04:20:49;0.50;;;0.50;;
12059;SDS011;6091;51.432;6.880;2023-03-01T04:23:19;0.60;;;0.60;;
12059;SDS011;6091;51.432;6.880;2023-03-01T04:28:22;0.52;;;0.52;;
12059;SDS011;6091;51.432;6.880;2023-03-01T04:31:05;0.50;;;0.50;;
12059;SDS011;6091;51.432;6.880;2023-03-01T04:33:43;0.50;;;0.50;;
12059;SDS011;6091;51.432;6.880;2023-03-01T04:36:22;0.47;;;0.47;;
12059;SDS011;6091;51.432;6.880;2023-03-01T04:38:52;0.52;;;0.52;;
12059;SDS011;6091;51.432;6.880;2023-03-01T04:41:21;0.60;;;0.60;;
12059;SDS011;6091;51.432;6.880;2023-03-01T04:43:50;0.68;;;0.60;;
12059;SDS011;6091;51.432;6.880;2023-03-01T04:46:18;0.60;;;0.60;;
12059;SDS011;6091;51.432;6.880;2023-03-01T04:48:47;0.50;;;0.50;;
12059;SDS011;6091;51.432;6.880;2023-03-01T04:51:14;0.50;;;0.50;;
12059;SDS011;6091;51.432;6.880;2023-03-01T04:53:42;0.40;;;0.40;;
12059;SDS011;6091;51.432;6.880;2023-03-01T04:56:10;0.60;;;0.60;;
12059;SDS011;6091;51.432;6.880;2023-03-01T04:58:39;0.55;;;0.55;;
12059;SDS011;6091;51.432;6.880;2023-03-01T05:01:11;0.45;;;0.45;;
12059;SDS011;6091;51.432;6.880;2023-03-01T05:03:44;0.50;;;0.50;;
12059;SDS011;6091;51.432;6.880;2023-03-01T05:06:14;0.50;;;0.50;;
12059;SDS011;6091;51.432;6.880;2023-03-01T05:08:43;0.57;;;0.57;;
12059;SDS011;6091;51.432;6.880;2023-03-01T05:11:11;0.47;;;0.47;;
12059;SDS011;6091;51.432;6.880;2023-03-01T05:13:39;0.52;;;0.52;;
12059;SDS011;6091;51.432;6.880;2023-03-01T05:16:06;0.43;;;0.43;;
12059;SDS011;6091;51.432;6.880;2023-03-01T05:18:37;0.50;;;0.50;;
12059;SDS011;6091;51.432;6.880;2023-03-01T05:21:07;0.65;;;0.63;;
12059;SDS011;6091;51.432;6.880;2023-03-01T05:23:42;0.57;;;0.57;;
12059;SDS011;6091;51.432;6.880;2023-03-01T05:26:09;0.65;;;0.65;;
12059;SDS011;6091;51.432;6.880;2023-03-01T05:28:53;0.60;;;0.60;;
12059;SDS011;6091;51.432;6.880;2023-03-01T05:31:25;0.70;;;0.70;;
12059;SDS011;6091;51.432;6.880;2023-03-01T05:33:52;0.60;;;0.60;;
12059;SDS011;6091;51.432;6.880;2023-03-01T05:36:19;0.50;;;0.50;;
12059;SDS011;6091;51.432;6.880;2023-03-01T05:38:46;0.50;;;0.50;;
12059;SDS011;6091;51.432;6.880;2023-03-01T05:41:14;0.73;;;0.60;;
12059;SDS011;6091;51.432;6.880;2023-03-01T05:43:43;0.50;;;0.50;;
12059;SDS011;6091;51.432;6.880;2023-03-01T05:46:11;0.52;;;0.52;;
12059;SDS011;6091;51.432;6.880;2023-03-01T05:48:41;0.60;;;0.60;;
12059;SDS011;6091;51.432;6.880;2023-03-01T05:51:08;0.40;;;0.40;;
12059;SDS011;6091;51.432;6.880;2023-03-01T05:53:35;0.70;;;0.70;;
12059;SDS011;6091;51.432;6.880;2023-03-01T05:56:03;0.68;;;0.68;;
12059;SDS011;6091;51.432;6.880;2023-03-01T05:58:30;0.57;;;0.57;;
12059;SDS011;6091;51.432;6.880;2023-03-01T06:00:58;0.80;;;0.40;;
12059;SDS011;6091;51.432;6.880;2023-03-01T06:03:25;0.52;;;0.50;;
12059;SDS011;6091;51.432;6.880;2023-03-01T06:05:56;0.70;;;0.70;;
12059;SDS011;6091;51.432;6.880;2023-03-01T06:08:24;0.55;;;0.55;;
12059;SDS011;6091;51.432;6.880;2023-03-01T06:10:53;0.50;;;0.50;;
12059;SDS011;6091;51.432;6.880;2023-03-01T06:13:21;0.40;;;0.40;;
12059;SDS011;6091;51.432;6.880;2023-03-01T06:15:49;0.60;;;0.60;;
12059;SDS011;6091;51.432;6.880;2023-03-01T06:18:18;0.50;;;0.50;;
12059;SDS011;6091;51.432;6.880;2023-03-01T06:20:45;0.63;;;0.63;;
12059;SDS011;6091;51.432;6.880;2023-03-01T06:23:20;0.60;;;0.60;;
12059;SDS011;6091;51.432;6.880;2023-03-01T06:25:48;0.60;;;0.60;;
12059;SDS011;6091;51.432;6.880;2023-03-01T06:28:16;0.50;;;0.50;;
12059;SDS011;6091;51.432;6.880;2023-03-01T06:30:43;0.50;;;0.50;;
12059;SDS011;6091;51.432;6.880;2023-03-01T06:33:10;0.50;;;0.50;;
12059;SDS011;6091;51.432;6.880;2023-03-01T06:35:37;0.60;;;0.60;;
12059;SDS011;6091;51.432;6.880;2023-03-01T06:38:04;0.60;;;0.60;;
12059;SDS011;6091;51.432;6.880;2023-03-01T06:40:32;0.52;;;0.50;;
12059;SDS011;6091;51.432;6.880;2023-03-01T06:43:01;0.60;;;0.60;;
12059;SDS011;6091;51.432;6.880;2023-03-01T06:45:28;0.65;;;0.65;;
12059;SDS011;6091;51.432;6.880;2023-03-01T06:48:05;1.85;;;0.80;;
12059;SDS011;6091;51.432;6.880;2023-03-01T06:50:35;1.80;;;0.80;;
12059;SDS011;6091;51.432;6.880;2023-03-01T06:53:02;0.88;;;0.60;;
12059;SDS011;6091;51.432;6.880;2023-03-01T06:55:32;0.98;;;0.77;;
12059;SDS011;6091;51.432;6.880;2023-03-01T06:58:00;1.52;;;0.60;;
12059;SDS011;6091;51.432;6.880;2023-03-01T07:00:29;0.98;;;0.70;;
12059;SDS011;6091;51.432;6.880;2023-03-01T07:03:00;0.90;;;0.77;;
12059;SDS011;6091;51.432;6.880;2023-03-01T07:05:29;1.10;;;0.73;;
12059;SDS011;6091;51.432;6.880;2023-03-01T07:07:56;0.70;;;0.70;;
12059;SDS011;6091;51.432;6.880;2023-03-01T07:10:24;1.35;;;0.60;;
12059;SDS011;6091;51.432;6.880;2023-03-01T07:12:53;0.95;;;0.80;;
12059;SDS011;6091;51.432;6.880;2023-03-01T07:15:22;0.93;;;0.60;;
12059;SDS011;6091;51.432;6.880;2023-03-01T07:17:50;1.88;;;0.90;;
12059;SDS011;6091;51.432;6.880;2023-03-01T07:20:18;1.10;;;0.70;;
12059;SDS011;6091;51.432;6.880;2023-03-01T07:22:48;2.05;;;0.85;;
12059;SDS011;6091;51.432;6.880;2023-03-01T07:25:15;0.70;;;0.70;;
12059;SDS011;6091;51.432;6.880;2023-03-01T07:27:42;1.20;;;1.10;;
12059;SDS011;6091;51.432;6.880;2023-03-01T07:30:09;0.93;;;0.90;;
12059;SDS011;6091;51.432;6.880;2023-03-01T07:32:37;1.15;;;0.88;;
12059;SDS011;6091;51.432;6.880;2023-03-01T07:35:04;1.13;;;0.80;;
12059;SDS011;6091;51.432;6.880;2023-03-01T07:37:32;0.75;;;0.75;;
12059;SDS011;6091;51.432;6.880;2023-03-01T07:39:59;0.75;;;0.75;;
12059;SDS011;6091;51.432;6.880;2023-03-01T07:42:26;1.15;;;0.80;;
12059;SDS011;6091;51.432;6.880;2023-03-01T07:44:53;0.60;;;0.60;;
12059;SDS011;6091;51.432;6.880;2023-03-01T07:47:20;0.70;;;0.70;;
12059;SDS011;6091;51.432;6.880;2023-03-01T07:49:46;2.75;;;0.70;;
12059;SDS011;6091;51.432;6.880;2023-03-01T07:52:13;1.58;;;0.80;;
12059;SDS011;6091;51.432;6.880;2023-03-01T07:54:42;0.80;;;0.80;;
12059;SDS011;6091;51.432;6.880;2023-03-01T07:57:12;1.13;;;0.85;;
12059;SDS011;6091;51.432;6.880;2023-03-01T07:59:40;1.02;;;0.68;;
12059;SDS011;6091;51.432;6.880;2023-03-01T08:02:07;1.30;;;0.88;;
12059;SDS011;6091;51.432;6.880;2023-03-01T08:04:36;0.80;;;0.80;;
12059;SDS011;6091;51.432;6.880;2023-03-01T08:07:05;1.23;;;0.82;;
12059;SDS011;6091;51.432;6.880;2023-03-01T08:09:34;1.00;;;0.85;;
12059;SDS011;6091;51.432;6.880;2023-03-01T08:12:03;1.52;;;0.85;;
12059;SDS011;6091;51.432;6.880;2023-03-01T08:14:31;1.80;;;1.00;;
12059;SDS011;6091;51.432;6.880;2023-03-01T08:16:59;4.75;;;0.90;;
12059;SDS011;6091;51.432;6.880;2023-03-01T08:19:26;1.98;;;0.80;;
12059;SDS011;6091;51.432;6.880;2023-03-01T08:21:54;2.00;;;1.10;;
12059;SDS011;6091;51.432;6.880;2023-03-01T08:24:24;2.75;;;0.98;;
12059;SDS011;6091;51.432;6.880;2023-03-01T08:26:52;2.05;;;1.25;;
12059;SDS011;6091;51.432;6.880;2023-03-01T08:29:20;2.25;;;1.20;;
12059;SDS011;6091;51.432;6.880;2023-03-01T08:31:47;2.67;;;1.02;;
12059;SDS011;6091;51.432;6.880;2023-03-01T08:34:17;2.67;;;1.13;;
12059;SDS011;6091;51.432;6.880;2023-03-01T08:36:45;1.25;;;0.90;;
12059;SDS011;6091;51.432;6.880;2023-03-01T08:39:14;3.90;;;1.30;;
12059;SDS011;6091;51.432;6.880;2023-03-01T08:41:46;3.80;;;1.42;;
12059;SDS011;6091;51.432;6.880;2023-03-01T08:44:13;4.15;;;1.30;;
12059;SDS011;6091;51.432;6.880;2023-03-01T08:46:43;5.07;;;1.10;;
12059;SDS011;6091;51.432;6.880;2023-03-01T08:49:13;2.67;;;1.42;;
12059;SDS011;6091;51.432;6.880;2023-03-01T08:51:44;3.60;;;1.40;;
12059;SDS011;6091;51.432;6.880;2023-03-01T08:54:17;27.10;;;3.83;;
12059;SDS011;6091;51.432;6.880;2023-03-01T08:56:46;23.02;;;4.43;;
12059;SDS011;6091;51.432;6.880;2023-03-01T08:59:15;9.90;;;3.25;;
12059;SDS011;6091;51.432;6.880;2023-03-01T09:01:43;9.63;;;2.83;;
12059;SDS011;6091;51.432;6.880;2023-03-01T09:04:11;7.13;;;2.70;;
12059;SDS011;6091;51.432;6.880;2023-03-01T09:06:40;11.65;;;2.72;;
12059;SDS011;6091;51.432;6.880;2023-03-01T09:09:12;7.28;;;2.47;;
12059;SDS011;6091;51.432;6.880;2023-03-01T09:11:44;8.90;;;2.22;;
12059;SDS011;6091;51.432;6.880;2023-03-01T09:14:13;7.28;;;1.90;;
12059;SDS011;6091;51.432;6.880;2023-03-01T09:16:40;3.38;;;1.73;;
12059;SDS011;6091;51.432;6.880;2023-03-01T09:19:07;9.38;;;1.80;;
12059;SDS011;6091;51.432;6.880;2023-03-01T09:21:34;4.55;;;2.00;;
12059;SDS011;6091;51.432;6.880;2023-03-01T09:24:12;7.40;;;2.00;;
12059;SDS011;6091;51.432;6.880;2023-03-01T09:26:41;4.32;;;1.65;;
12059;SDS011;6091;51.432;6.880;2023-03-01T09:29:09;4.47;;;1.50;;
12059;SDS011;6091;51.432;6.880;2023-03-01T09:31:36;6.00;;;1.90;;
12059;SDS011;6091;51.432;6.880;2023-03-01T09:34:03;9.88;;;2.00;;
12059;SDS011;6091;51.432;6.880;2023-03-01T09:36:31;7.53;;;2.27;;
12059;SDS011;6091;51.432;6.880;2023-03-01T09:38:59;4.30;;;1.63;;
12059;SDS011;6091;51.432;6.880;2023-03-01T09:44:42;5.40;;;1.98;;
12059;SDS011;6091;51.432;6.880;2023-03-01T09:47:33;7.07;;;1.70;;
12059;SDS011;6091;51.432;6.880;2023-03-01T09:50:15;2.97;;;1.30;;
12059;SDS011;6091;51.432;6.880;2023-03-01T09:52:54;4.30;;;1.52;;
12059;SDS011;6091;51.432;6.880;2023-03-01T09:55:44;7.72;;;2.03;;
12059;SDS011;6091;51.432;6.880;2023-03-01T10:06:58;3.80;;;1.90;;
12059;SDS011;6091;51.432;6.880;2023-03-01T10:09:40;5.32;;;1.88;;
12059;SDS011;6091;51.432;6.880;2023-03-01T10:12:12;2.65;;;1.75;;
12059;SDS011;6091;51.432;6.880;2023-03-01T10:14:53;5.00;;;1.20;;
12059;SDS011;6091;51.432;6.880;2023-03-01T10:17:52;4.15;;;1.63;;
12059;SDS011;6091;51.432;6.880;2023-03-01T10:20:37;2.85;;;1.25;;
12059;SDS011;6091;51.432;6.880;2023-03-01T10:23:18;3.03;;;1.67;;
12059;SDS011;6091;51.432;6.880;2023-03-01T10:32:04;1.77;;;1.23;;
12059;SDS011;6091;51.432;6.880;2023-03-01T10:34:35;2.22;;;1.40;;
12059;SDS011;6091;51.432;6.880;2023-03-01T10:37:13;2.63;;;1.30;;
12059;SDS011;6091;51.432;6.880;2023-03-01T10:42:48;1.30;;;1.20;;
12059;SDS011;6091;51.432;6.880;2023-03-01T10:45:23;1.58;;;1.13;;
12059;SDS011;6091;51.432;6.880;2023-03-01T10:48:03;1.40;;;1.10;;
12059;SDS011;6091;51.432;6.880;2023-03-01T10:50:48;0.95;;;0.95;;
12059;SDS011;6091;51.432;6.880;2023-03-01T10:53:33;2.83;;;1.30;;
12059;SDS011;6091;51.432;6.880;2023-03-01T10:56:09;1.90;;;1.02;;
12059;SDS011;6091;51.432;6.880;2023-03-01T10:59:03;1.67;;;1.33;;
12059;SDS011;6091;51.432;6.880;2023-03-01T11:01:46;2.70;;;1.40;;
12059;SDS011;6091;51.432;6.880;2023-03-01T11:07:23;1.70;;;1.50;;
12059;SDS011;6091;51.432;6.880;2023-03-01T11:09:51;1.27;;;1.17;;
12059;SDS011;6091;51.432;6.880;2023-03-01T11:12:18;1.13;;;1.00;;
12059;SDS011;6091;51.432;6.880;2023-03-01T11:14:55;2.50;;;1.30;;
12059;SDS011;6091;51.432;6.880;2023-03-01T11:17:25;1.23;;;1.10;;
12059;SDS011;6091;51.432;6.880;2023-03-01T11:22:50;1.88;;;1.02;;
12059;SDS011;6091;51.432;6.880;2023-03-01T11:25:38;1.85;;;1.00;;
12059;SDS011;6091;51.432;6.880;2023-03-01T11:28:17;2.08;;;1.23;;
12059;SDS011;6091;51.432;6.880;2023-03-01T11:30:58;1.33;;;0.90;;
12059;SDS011;6091;51.432;6.880;2023-03-01T11:33:42;1.40;;;1.00;;
12059;SDS011;6091;51.432;6.880;2023-03-01T11:36:51;1.15;;;1.00;;
12059;SDS011;6091;51.432;6.880;2023-03-01T11:39:32;1.60;;;1.00;;
12059;SDS011;6091;51.432;6.880;2023-03-01T11:42:18;1.38;;;1.27;;
12059;SDS011;6091;51.432;6.880;2023-03-01T11:45:09;1.35;;;1.25;;
12059;SDS011;6091;51.432;6.880;2023-03-01T11:50:40;1.23;;;1.13;;
12059;SDS011;6091;51.432;6.880;2023-03-01T11:56:31;2.38;;;1.10;;
12059;SDS011;6091;51.432;6.880;2023-03-01T12:02:01;2.65;;;1.15;;
12059;SDS011;6091;51.432;6.880;2023-03-01T12:05:24;1.45;;;1.10;;
12059;SDS011;6091;51.432;6.880;2023-03-01T12:31:42;2.45;;;1.08;;
12059;SDS011;6091;51.432;6.880;2023-03-01T12:37:25;1.88;;;0.95;;
12059;SDS011;6091;51.432;6.880;2023-03-01T12:40:33;1.85;;;1.17;;
12059;SDS011;6091;51.432;6.880;2023-03-01T12:49:40;3.80;;;1.42;;
12059;SDS011;6091;51.432;6.880;2023-03-01T12:55:26;2.70;;;1.08;;
12059;SDS011;6091;51.432;6.880;2023-03-01T13:03:37;3.15;;;1.30;;
12059;SDS011;6091;51.432;6.880;2023-03-01T13:17:59;2.10;;;1.10;;
12059;SDS011;6091;51.432;6.880;2023-03-01T13:33:54;2.55;;;1.60;;
12059;SDS011;6091;51.432;6.880;2023-03-01T13:38:55;3.27;;;1.70;;
12059;SDS011;6091;51.432;6.880;2023-03-01T13:46:59;1.45;;;1.30;;
12059;SDS011;6091;51.432;6.880;2023-03-01T13:49:41;3.75;;;1.50;;
12059;SDS011;6091;51.432;6.880;2023-03-01T13:55:17;3.67;;;1.50;;
12059;SDS011;6091;51.432;6.880;2023-03-01T13:57:54;4.25;;;1.65;;
12059;SDS011;6091;51.432;6.880;2023-03-01T14:05:44;3.00;;;1.35;;
12059;SDS011;6091;51.432;6.880;2023-03-01T14:08:40;3.33;;;1.63;;
12059;SDS011;6091;51.432;6.880;2023-03-01T14:22:48;1.42;;;1.10;;
12059;SDS011;6091;51.432;6.880;2023-03-01T14:25:21;2.38;;;1.30;;
12059;SDS011;6091;51.432;6.880;2023-03-01T14:27:54;1.67;;;1.08;;
12059;SDS011;6091;51.432;6.880;2023-03-01T14:30:30;1.20;;;1.10;;
12059;SDS011;6091;51.432;6.880;2023-03-01T14:33:00;2.75;;;1.30;;
12059;SDS011;6091;51.432;6.880;2023-03-01T14:35:33;3.10;;;1.20;;
12059;SDS011;6091;51.432;6.880;2023-03-01T14:38:02;1.75;;;1.25;;
12059;SDS011;6091;51.432;6.880;2023-03-01T14:40:32;2.35;;;1.10;;
12059;SDS011;6091;51.432;6.880;2023-03-01T14:43:08;1.48;;;1.27;;
12059;SDS011;6091;51.432;6.880;2023-03-01T14:45:46;3.15;;;1.23;;
12059;SDS011;6091;51.432;6.880;2023-03-01T14:48:17;4.47;;;1.60;;
12059;SDS011;6091;51.432;6.880;2023-03-01T14:50:45;2.38;;;1.23;;
12059;SDS011;6091;51.432;6.880;2023-03-01T14:53:17;4.05;;;1.33;;
12059;SDS011;6091;51.432;6.880;2023-03-01T14:55:52;4.37;;;2.10;;
12059;SDS011;6091;51.432;6.880;2023-03-01T14:58:24;2.67;;;2.45;;
12059;SDS011;6091;51.432;6.880;2023-03-01T15:00:53;2.85;;;2.00;;
12059;SDS011;6091;51.432;6.880;2023-03-01T15:03:38;4.88;;;2.03;;
12059;SDS011;6091;51.432;6.880;2023-03-01T15:06:10;3.13;;;1.70;;
12059;SDS011;6091;51.432;6.880;2023-03-01T15:08:42;2.60;;;1.65;;
12059;SDS011;6091;51.432;6.880;2023-03-01T15:11:17;3.53;;;1.52;;
12059;SDS011;6091;51.432;6.880;2023-03-01T15:13:48;1.88;;;1.20;;
12059;SDS011;6091;51.432;6.880;2023-03-01T15:16:27;6.95;;;1.60;;
12059;SDS011;6091;51.432;6.880;2023-03-01T15:19:01;2.30;;;1.08;;
12059;SDS011;6091;51.432;6.880;2023-03-01T15:21:42;3.08;;;1.17;;
12059;SDS011;6091;51.432;6.880;2023-03-01T15:24:17;2.45;;;1.17;;
12059;SDS011;6091;51.432;6.880;2023-03-01T15:26:51;3.47;;;1.20;;
12059;SDS011;6091;51.432;6.880;2023-03-01T15:29:33;3.72;;;1.90;;
12059;SDS011;6091;51.432;6.880;2023-03-01T15:32:22;3.53;;;1.10;;
12059;SDS011;6091;51.432;6.880;2023-03-01T15:34:58;4.30;;;1.33;;
12059;SDS011;6091;51.432;6.880;2023-03-01T15:40:23;1.42;;;1.00;;
12059;SDS011;6091;51.432;6.880;2023-03-01T15:43:02;1.33;;;1.00;;
12059;SDS011;6091;51.432;6.880;2023-03-01T15:45:32;4.75;;;1.40;;
12059;SDS011;6091;51.432;6.880;2023-03-01T15:48:01;1.85;;;1.00;;
12059;SDS011;6091;51.432;6.880;2023-03-01T15:50:35;2.15;;;1.00;;
12059;SDS011;6091;51.432;6.880;2023-03-01T15:53:08;4.38;;;1.48;;
12059;SDS011;6091;51.432;6.880;2023-03-01T15:55:40;6.03;;;1.33;;
12059;SDS011;6091;51.432;6.880;2023-03-01T15:58:15;5.70;;;1.45;;
12059;SDS011;6091;51.432;6.880;2023-03-01T16:00:45;2.38;;;1.00;;
12059;SDS011;6091;51.432;6.880;2023-03-01T16:03:26;4.40;;;1.75;;
12059;SDS011;6091;51.432;6.880;2023-03-01T16:05:54;2.95;;;1.20;;
12059;SDS011;6091;51.432;6.880;2023-03-01T16:08:21;5.20;;;1.45;;
12059;SDS011;6091;51.432;6.880;2023-03-01T16:10:48;2.03;;;1.48;;
12059;SDS011;6091;51.432;6.880;2023-03-01T16:13:17;4.20;;;1.73;;
12059;SDS011;6091;51.432;6.880;2023-03-01T16:15:45;4.25;;;1.23;;
12059;SDS011;6091;51.432;6.880;2023-03-01T16:18:13;2.78;;;1.10;;
12059;SDS011;6091;51.432;6.880;2023-03-01T16:20:40;3.45;;;1.08;;
12059;SDS011;6091;51.432;6.880;2023-03-01T16:23:07;4.45;;;1.50;;
12059;SDS011;6091;51.432;6.880;2023-03-01T16:25:37;1.38;;;1.00;;
12059;SDS011;6091;51.432;6.880;2023-03-01T16:28:04;4.07;;;1.42;;
12059;SDS011;6091;51.432;6.880;2023-03-01T16:30:35;4.20;;;1.08;;
12059;SDS011;6091;51.432;6.880;2023-03-01T16:33:06;2.80;;;1.00;;
12059;SDS011;6091;51.432;6.880;2023-03-01T16:35:52;2.53;;;1.33;;
12059;SDS011;6091;51.432;6.880;2023-03-01T16:38:20;1.30;;;0.82;;
12059;SDS011;6091;51.432;6.880;2023-03-01T16:40:47;1.55;;;0.95;;
12059;SDS011;6091;51.432;6.880;2023-03-01T16:43:17;2.33;;;1.05;;
12059;SDS011;6091;51.432;6.880;2023-03-01T16:45:44;1.35;;;0.90;;
12059;SDS011;6091;51.432;6.880;2023-03-01T16:48:12;3.33;;;1.20;;
12059;SDS011;6091;51.432;6.880;2023-03-01T16:50:39;1.65;;;1.15;;
12059;SDS011;6091;51.432;6.880;2023-03-01T16:53:07;1.23;;;0.88;;
12059;SDS011;6091;51.432;6.880;2023-03-01T16:55:34;1.45;;;1.10;;
12059;SDS011;6091;51.432;6.880;2023-03-01T16:58:01;3.22;;;1.05;;
12059;SDS011;6091;51.432;6.880;2023-03-01T17:00:28;0.70;;;0.70;;
12059;SDS011;6091;51.432;6.880;2023-03-01T17:02:56;2.08;;;1.13;;
12059;SDS011;6091;51.432;6.880;2023-03-01T17:05:23;2.80;;;0.90;;
12059;SDS011;6091;51.432;6.880;2023-03-01T17:07:51;1.48;;;1.00;;
12059;SDS011;6091;51.432;6.880;2023-03-01T17:10:21;3.28;;;1.00;;
12059;SDS011;6091;51.432;6.880;2023-03-01T17:12:49;4.78;;;1.20;;
12059;SDS011;6091;51.432;6.880;2023-03-01T17:15:16;3.80;;;0.93;;
12059;SDS011;6091;51.432;6.880;2023-03-01T17:17:43;3.55;;;1.02;;
12059;SDS011;6091;51.432;6.880;2023-03-01T17:20:10;6.15;;;1.15;;
12059;SDS011;6091;51.432;6.880;2023-03-01T17:22:38;4.28;;;1.30;;
12059;SDS011;6091;51.432;6.880;2023-03-01T17:25:07;2.00;;;1.17;;
12059;SDS011;6091;51.432;6.880;2023-03-01T17:27:38;1.73;;;1.05;;
12059;SDS011;6091;51.432;6.880;2023-03-01T17:30:07;2.47;;;1.10;;
12059;SDS011;6091;51.432;6.880;2023-03-01T17:32:36;3.30;;;1.25;;
12059;SDS011;6091;51.432;6.880;2023-03-01T17:35:05;2.65;;;1.20;;
12059;SDS011;6091;51.432;6.880;2023-03-01T17:37:33;1.35;;;1.00;;
12059;SDS011;6091;51.432;6.880;2023-03-01T17:40:02;2.17;;;0.90;;
12059;SDS011;6091;51.432;6.880;2023-03-01T17:42:29;1.30;;;1.15;;
12059;SDS011;6091;51.432;6.880;2023-03-01T17:44:57;1.13;;;0.85;;
12059;SDS011;6091;51.432;6.880;2023-03-01T17:47:26;2.05;;;1.10;;
12059;SDS011;6091;51.432;6.880;2023-03-01T17:49:52;1.70;;;1.13;;
12059;SDS011;6091;51.432;6.880;2023-03-01T17:52:19;4.20;;;1.10;;
12059;SDS011;6091;51.432;6.880;2023-03-01T17:54:49;1.70;;;0.98;;